createdAt,value
2022-12-01T00:05:04.515Z,11.32
2022-12-01T00:12:06.361Z,10.38
2022-12-01T00:19:09.208Z,10.10
2022-12-01T00:26:10.996Z,8.68
2022-12-01T00:33:12.748Z,10.27
2022-12-01T00:40:14.661Z,9.50
2022-12-01T00:47:16.408Z,10.18
2022-12-01T00:54:18.790Z,10.13
2022-12-01T01:01:20.740Z,10.02
2022-12-01T01:08:22.749Z,11.40
2022-12-01T01:15:24.590Z,11.20
2022-12-01T01:22:26.424Z,10.27
2022-12-01T01:29:28.234Z,10.20
2022-12-01T01:36:30.086Z,11.85
2022-12-01T01:43:43.517Z,10.35
2022-12-01T01:50:45.380Z,11.57
2022-12-01T01:57:47.350Z,10.63
2022-12-01T02:04:51.748Z,10.25
2022-12-01T02:12:32.255Z,10.82
2022-12-01T02:19:46.316Z,10.60
2022-12-01T02:27:17.670Z,10.45
2022-12-01T02:34:25.497Z,10.55
2022-12-01T02:41:29.906Z,11.68
2022-12-01T02:48:34.149Z,10.80
2022-12-01T02:55:36.054Z,10.95
2022-12-01T03:02:53.239Z,10.23
2022-12-01T03:09:54.981Z,10.52
2022-12-01T03:16:57.966Z,10.68
2022-12-01T03:24:04.907Z,10.30
2022-12-01T03:31:09.385Z,9.90
2022-12-01T03:38:27.638Z,10.02
2022-12-01T03:45:32.469Z,9.95
2022-12-01T03:52:37.305Z,10.30
2022-12-01T03:59:40.717Z,9.27
2022-12-01T04:06:43.584Z,9.45
2022-12-01T04:13:45.322Z,9.82
2022-12-01T04:20:47.905Z,9.00
2022-12-01T04:27:49.649Z,9.85
2022-12-01T04:34:51.581Z,9.90
2022-12-01T04:41:53.426Z,10.07
2022-12-01T04:48:55.242Z,9.35
2022-12-01T04:55:57.097Z,9.80
2022-12-01T05:02:59.233Z,9.50
2022-12-01T05:10:01.097Z,10.40
2022-12-01T05:17:02.963Z,10.20
2022-12-01T05:24:05.340Z,10.38
2022-12-01T05:31:07.828Z,12.45
2022-12-01T05:38:09.905Z,15.27
2022-12-01T05:45:11.750Z,15.52
2022-12-01T05:52:13.579Z,17.60
2022-12-01T05:59:15.485Z,13.88
2022-12-01T06:06:17.868Z,11.05
2022-12-01T06:13:19.648Z,10.57
2022-12-01T06:20:21.398Z,11.88
2022-12-01T06:27:23.163Z,12.55
2022-12-01T06:34:24.901Z,13.73
2022-12-01T06:41:26.622Z,12.90
2022-12-01T06:48:28.416Z,12.15
2022-12-01T06:55:30.242Z,13.23
2022-12-01T07:02:32.589Z,14.18
2022-12-01T07:09:34.795Z,14.02
2022-12-01T07:16:36.618Z,16.58
2022-12-01T07:23:38.488Z,17.50
2022-12-01T07:30:40.218Z,17.23
2022-12-01T07:37:42.090Z,16.15
2022-12-01T07:44:43.888Z,16.50
2022-12-01T07:51:46.180Z,17.95
2022-12-01T07:58:48.322Z,17.85
2022-12-01T08:06:00.132Z,17.52
2022-12-01T08:13:01.920Z,19.27
2022-12-01T08:20:03.732Z,17.75
2022-12-01T08:27:05.560Z,18.77
2022-12-01T08:34:07.472Z,18.88
2022-12-01T08:41:09.488Z,18.10
2022-12-01T08:48:11.399Z,19.88
2022-12-01T08:55:13.349Z,15.60
2022-12-01T09:02:16.324Z,15.55
2022-12-01T09:09:19.829Z,17.17
2022-12-01T09:16:21.847Z,15.00
2022-12-01T09:23:24.569Z,15.52
2022-12-01T09:30:26.405Z,13.48
2022-12-01T09:37:28.241Z,13.52
2022-12-01T09:44:34.838Z,14.18
2022-12-01T09:51:37.455Z,13.38
2022-12-01T09:58:39.645Z,12.02
2022-12-01T10:06:10.266Z,12.68
2022-12-01T10:13:42.740Z,12.57
2022-12-01T10:21:11.657Z,13.27
2022-12-01T10:28:28.525Z,13.27
2022-12-01T10:35:36.419Z,13.45
2022-12-01T10:42:41.669Z,13.48
2022-12-01T10:49:43.413Z,12.82
2022-12-01T10:56:48.000Z,13.40
2022-12-01T11:04:06.059Z,12.80
2022-12-01T11:11:23.495Z,14.50
2022-12-01T11:18:28.361Z,14.45
2022-12-01T11:25:30.082Z,14.82
2022-12-01T11:32:34.311Z,14.70
2022-12-01T11:39:37.769Z,13.60
2022-12-01T11:46:50.095Z,14.15
2022-12-01T11:54:14.959Z,15.18
2022-12-01T12:01:23.286Z,13.63
2022-12-01T12:08:28.158Z,13.80
2022-12-01T12:15:52.961Z,13.00
2022-12-01T12:23:06.769Z,12.20
2022-12-01T12:30:11.486Z,13.13
2022-12-01T12:37:26.794Z,14.52
2022-12-01T12:44:48.780Z,15.18
2022-12-01T12:52:23.176Z,14.15
2022-12-01T12:59:28.359Z,13.18
2022-12-01T13:06:37.330Z,13.95
2022-12-01T13:13:57.473Z,14.13
2022-12-01T13:21:00.279Z,13.75
2022-12-01T13:28:03.579Z,14.48
2022-12-01T13:35:07.660Z,13.25
2022-12-01T13:42:21.144Z,13.77
2022-12-01T13:49:42.480Z,13.32
2022-12-01T13:57:00.572Z,14.13
2022-12-01T14:04:11.640Z,12.98
2022-12-01T14:11:19.852Z,12.43
2022-12-01T14:18:33.595Z,13.20
2022-12-01T14:25:35.560Z,12.30
2022-12-01T14:32:37.542Z,12.15
2022-12-01T14:39:41.080Z,11.13
2022-12-01T14:46:49.292Z,10.95
2022-12-01T14:53:52.463Z,11.48
2022-12-01T15:00:56.827Z,12.40
2022-12-01T15:08:18.570Z,12.18
2022-12-01T15:15:24.367Z,12.82
2022-12-01T15:22:29.544Z,12.68
2022-12-01T15:29:57.321Z,11.13
2022-12-01T15:36:59.876Z,10.88
2022-12-01T15:44:03.866Z,9.18
2022-12-01T15:51:11.730Z,9.18
2022-12-01T15:58:20.107Z,9.73
2022-12-01T16:05:42.220Z,9.02
2022-12-01T16:12:44.054Z,9.85
2022-12-01T16:19:46.277Z,9.10
2022-12-01T16:26:50.853Z,9.63
2022-12-01T16:34:13.827Z,10.57
2022-12-01T16:41:36.425Z,9.73
2022-12-01T16:48:40.081Z,12.45
2022-12-01T16:55:46.099Z,11.02
2022-12-01T17:02:48.643Z,10.07
2022-12-01T17:09:50.813Z,9.57
2022-12-01T17:16:53.102Z,9.85
2022-12-01T17:23:54.975Z,11.05
2022-12-01T17:31:00.142Z,10.73
2022-12-01T17:38:02.399Z,9.85
2022-12-01T17:45:04.720Z,11.45
2022-12-01T17:52:07.328Z,12.40
2022-12-01T17:59:09.164Z,12.48
2022-12-01T18:06:11.369Z,14.27
2022-12-01T18:13:13.546Z,11.70
2022-12-01T18:20:15.589Z,11.05
2022-12-01T18:27:18.005Z,13.48
2022-12-01T18:34:20.187Z,14.05
2022-12-01T18:41:22.600Z,12.98
2022-12-01T18:48:25.245Z,13.57
2022-12-01T18:55:27.318Z,12.50
2022-12-01T19:02:29.880Z,12.50
2022-12-01T19:09:32.808Z,13.77
2022-12-01T19:16:34.790Z,13.13
2022-12-01T19:23:38.230Z,11.32
2022-12-01T19:30:45.373Z,12.23
2022-12-01T19:37:52.308Z,12.02
2022-12-01T19:44:56.329Z,11.68
2022-12-01T19:51:58.476Z,13.40
2022-12-01T19:59:01.554Z,11.77
2022-12-01T20:06:11.438Z,13.10
2022-12-01T20:13:15.110Z,13.60
2022-12-01T20:20:17.999Z,13.45
2022-12-01T20:27:20.477Z,14.55
2022-12-01T20:34:26.931Z,13.75
2022-12-01T20:41:30.905Z,12.57
2022-12-01T20:48:33.920Z,12.38
2022-12-01T20:55:37.583Z,12.10
2022-12-01T21:02:39.851Z,13.02
2022-12-01T21:09:41.916Z,12.55
2022-12-01T21:16:48.460Z,13.70
2022-12-01T21:24:11.634Z,11.85
2022-12-01T21:31:14.456Z,13.80
2022-12-01T21:38:20.523Z,13.80
2022-12-01T21:45:23.912Z,12.82
2022-12-01T21:52:32.083Z,18.88
2022-12-01T21:59:34.048Z,14.43
2022-12-01T22:06:38.124Z,18.25
2022-12-01T22:13:40.289Z,11.68
2022-12-01T22:20:42.115Z,14.55
2022-12-01T22:27:44.277Z,16.48
2022-12-01T22:34:49.899Z,11.07
2022-12-01T22:41:57.519Z,11.95
2022-12-01T22:49:01.381Z,11.23
2022-12-01T22:56:08.019Z,11.82
2022-12-01T23:03:11.539Z,10.32
2022-12-01T23:10:18.710Z,11.52
2022-12-01T23:17:20.561Z,11.80
2022-12-01T23:24:22.451Z,11.20
2022-12-01T23:31:24.845Z,11.43
2022-12-01T23:38:30.692Z,11.07
2022-12-01T23:45:32.457Z,10.07
2022-12-01T23:52:36.141Z,11.02
2022-12-01T23:59:38.341Z,11.70
